Wednesday, January 17, 2018, 11:28 AM GMT
Back to Local

CYMX, Montreal / Mirabel

Location: , , Canada Lat: 45.683
Local Time: 11:28 AM GMT (11:28 GMT) Lon: -74.033
Time Zone: GMT Elev: 269 ft

Show me the last for .
Show Decoded

2018-01-17 11:00 METAR CYMX 171100Z 26003KT 10SM OVC005 M12/M13 A3036 RMK SF8 SLP291 =
2018-01-17 10:00 METAR CYMX 171000Z 17003KT 15SM OVC005 M13/M14 A3035 RMK ST8 SLP287 =
2018-01-17 09:00 METAR CYMX 170900Z 23002KT 15SM OVC006 M12/M14 A3037 RMK ST8 SLP293 =
2018-01-17 08:00 METAR CYMX 170800Z 25002KT 15SM OVC009 M12/M14 A3039 RMK ST8 SLP299 =
2018-01-17 07:00 METAR CYMX 170700Z 00000KT 15SM OVC010 M12/M14 A3038 RMK ST8 SLP296 =
2018-01-17 06:00 METAR CYMX 170600Z 02002KT 15SM OVC010 M12/M14 A3037 RMK ST8 SLP292 =
2018-01-17 05:00 METAR CYMX 170500Z 00000KT 15SM BKN010 OVC060 M12/M14 A3039 RMK ST7SC1 SLP300 =
2018-01-17 04:00 METAR CYMX 170400Z 14002KT 15SM BKN010 OVC060 M14/M15 A3040 RMK ST6SC2 SLP302 =
2018-01-17 03:38 METAR CYMX 170338Z 00000KT 15SM SCT010 BKN018 OVC060 M14/M16 A3040 RMK ST4SC1SC3
                 SLP304 =
2018-01-17 03:00 METAR CYMX 170300Z 06004KT 020V080 15SM OVC060 M13/M15 A3039 RMK SC8 SLP300 =
2018-01-17 02:43 METAR CYMX 170243Z 06003KT 15SM OVC060 M14/M15 A3040 RMK SC8 SLP303 =
2018-01-17 02:00 METAR CYMX 170200Z VRB02KT 15SM -SN FEW035 OVC062 M13/M14 A3041 RMK SC1SC7
                 SLP307 =
2018-01-17 01:00 METAR CYMX 170100Z 02003KT 320V060 10SM -SN FEW035 OVC064 M12/M14 A3042 RMK
                 SC2SC6 SLP310 =
2018-01-17 00:00 METAR CYMX 170000Z VRB02KT 6SM -SN FEW035 OVC069 M12/M14 A3042 RMK SC2AC6 SLP311
                 =
2018-01-16 23:00 METAR CYMX 162300Z VRB02KT 5SM -SN SCT035 OVC070 M12/M14 A3042 RMK SC3AC5 SLP312
                 =
2018-01-16 22:00 METAR CYMX 162200Z 36003KT 5SM -SN BKN035 OVC065 M11/M14 A3042 RMK SC5SC3 SLP312
                 =
2018-01-16 21:00 METAR CYMX 162100Z 06002KT 4SM -SN BKN065 OVC120 M11/M14 A3042 RMK SC7AC1 SLP310
                 =
2018-01-16 20:00 METAR CYMX 162000Z 09004KT 5SM -SN BKN032 OVC065 M11/M14 A3041 RMK SC5SC3 SLP307
                 =
2018-01-16 19:00 METAR CYMX 161900Z 07004KT 4SM -SN OVC036 M11/M15 A3040 RMK SC8 SLP305 =
2018-01-16 18:00 METAR CYMX 161800Z 05005KT 15SM -SN BKN030 OVC080 M12/M15 A3041 RMK SC7AC1
                 SLP309 =
2018-01-16 17:00 METAR CYMX 161700Z 04004KT 360V080 6SM -SN BKN033 M12/M15 A3042 RMK SC7 VIS W 2
                 PRESFR SLP311 =
2018-01-16 16:00 METAR CYMX 161600Z 05006KT 020V090 15SM -SN FEW080 FEW250 M13/M16 A3045 RMK
                 AC1CI1 CI TR SLP321 =
2018-01-16 15:00 METAR CYMX 161500Z 06003KT 360V100 5SM -SN SCT031 BKN085 BKN200 M13/M16 A3046
                 RMK SC3AC3CI1 SLP323 =
2018-01-16 14:00 METAR CYMX 161400Z 04003KT 340V100 3SM -SN BKN031 OVC085 M14/M17 A3045 RMK
                 SN2SC5AC1 SLP322 =
2018-01-16 13:00 METAR CYMX 161300Z 06004KT 030V100 20SM -SN SCT085 SCT260 M15/M18 A3045 RMK
                 AC3CI1 SLP321 =
2018-01-16 12:00 METAR CYMX 161200Z 06004KT 010V100 25SM -SN SCT032 BKN096 M15/M17 A3045 RMK
                 SC4AC3 SLP322 =

Support USWX by starting your Amazon purchase here.